Terminal Aerodrome Forecast
Issued by NWS

Home | Current Version | Previous Version | Text Only | Print | Product List | Glossary On
Versions: 1 2 3 4 5 6 7 8 9 10 11 12 13 14 15 16 17 18 19 20 21 22 23
313
FTUS44 KOUN 031732
TAFWWR
TAF
KWWR 031732Z 0318/0418 14008KT 6SM -DZ OVC006
     FM032200 08007KT 5SM -DZ OVC012
     FM040500 35005KT 4SM -DZ OVC005
     FM041100 34006KT P6SM BKN012 OVC030
     FM041500 34009KT P6SM SCT030=

USA.gov is the U.S. government's official web portal to all federal, state and local government web resources and services.